sensor_id;sensor_type;location;lat;lon;timestamp;pressure;altitude;pressure_sealevel;temperature;humidity
43147;BME280;28752;48.266;7.402;2023-04-07T00:01:56;99406.47;;;9.87;65.82
43147;BME280;28752;48.266;7.402;2023-04-07T00:04:21;99403.13;;;9.85;66.27
43147;BME280;28752;48.266;7.402;2023-04-07T00:06:47;99407.88;;;9.81;66.81
43147;BME280;28752;48.266;7.402;2023-04-07T00:09:12;99409.00;;;9.78;67.32
43147;BME280;28752;48.266;7.402;2023-04-07T00:11:37;99415.66;;;9.73;67.79
43147;BME280;28752;48.266;7.402;2023-04-07T00:14:03;99411.38;;;9.62;68.62
43147;BME280;28752;48.266;7.402;2023-04-07T00:16:28;99414.84;;;9.53;68.98
43147;BME280;28752;48.266;7.402;2023-04-07T00:18:53;99409.69;;;9.51;69.18
43147;BME280;28752;48.266;7.402;2023-04-07T00:21:19;99398.56;;;9.57;69.05
43147;BME280;28752;48.266;7.402;2023-04-07T00:23:44;99407.19;;;9.50;69.21
43147;BME280;28752;48.266;7.402;2023-04-07T00:26:11;99400.09;;;9.40;69.67
43147;BME280;28752;48.266;7.402;2023-04-07T00:28:36;99400.78;;;9.42;68.72
43147;BME280;28752;48.266;7.402;2023-04-07T00:31:01;99394.25;;;9.47;69.12
43147;BME280;28752;48.266;7.402;2023-04-07T00:33:27;99379.94;;;9.30;68.42
43147;BME280;28752;48.266;7.402;2023-04-07T00:35:52;99381.34;;;9.43;68.48
43147;BME280;28752;48.266;7.402;2023-04-07T00:38:18;99376.19;;;9.42;69.91
43147;BME280;28752;48.266;7.402;2023-04-07T00:40:44;99374.63;;;9.20;71.43
43147;BME280;28752;48.266;7.402;2023-04-07T00:43:09;99377.94;;;8.93;72.15
43147;BME280;28752;48.266;7.402;2023-04-07T00:45:35;99362.00;;;9.04;71.41
43147;BME280;28752;48.266;7.402;2023-04-07T00:48:01;99368.00;;;9.16;71.88
43147;BME280;28752;48.266;7.402;2023-04-07T00:50:26;99363.09;;;9.01;73.06
43147;BME280;28752;48.266;7.402;2023-04-07T00:52:52;99372.97;;;8.99;73.32
43147;BME280;28752;48.266;7.402;2023-04-07T00:55:18;99371.47;;;9.06;72.12
43147;BME280;28752;48.266;7.402;2023-04-07T00:57:44;99366.69;;;8.91;72.32
43147;BME280;28752;48.266;7.402;2023-04-07T01:00:11;99362.09;;;8.73;73.16
43147;BME280;28752;48.266;7.402;2023-04-07T01:02:41;99360.28;;;8.74;72.82
43147;BME280;28752;48.266;7.402;2023-04-07T01:10:36;99364.72;;;8.32;74.69
43147;BME280;28752;48.266;7.402;2023-04-07T01:15:43;99364.25;;;8.27;74.51
43147;BME280;28752;48.266;7.402;2023-04-07T01:18:18;99360.38;;;8.22;74.76
43147;BME280;28752;48.266;7.402;2023-04-07T01:20:48;99367.09;;;8.35;73.80
43147;BME280;28752;48.266;7.402;2023-04-07T01:23:22;99358.91;;;8.39;73.78
43147;BME280;28752;48.266;7.402;2023-04-07T01:25:59;99345.84;;;8.37;74.05
43147;BME280;28752;48.266;7.402;2023-04-07T01:28:43;99354.31;;;8.41;73.62
43147;BME280;28752;48.266;7.402;2023-04-07T01:31:14;99357.47;;;8.34;73.50
43147;BME280;28752;48.266;7.402;2023-04-07T01:33:43;99350.94;;;8.29;73.71
43147;BME280;28752;48.266;7.402;2023-04-07T01:36:10;99349.56;;;8.34;73.29
43147;BME280;28752;48.266;7.402;2023-04-07T01:38:36;99343.47;;;8.34;73.75
43147;BME280;28752;48.266;7.402;2023-04-07T01:41:04;99349.72;;;8.33;73.99
43147;BME280;28752;48.266;7.402;2023-04-07T01:43:32;99334.97;;;8.30;74.45
43147;BME280;28752;48.266;7.402;2023-04-07T01:45:58;99333.84;;;8.23;75.10
43147;BME280;28752;48.266;7.402;2023-04-07T01:48:25;99336.91;;;8.28;76.09
43147;BME280;28752;48.266;7.402;2023-04-07T01:50:52;99330.94;;;8.26;76.21
43147;BME280;28752;48.266;7.402;2023-04-07T01:53:19;99322.59;;;8.21;76.98
43147;BME280;28752;48.266;7.402;2023-04-07T01:55:44;99318.72;;;8.25;76.66
43147;BME280;28752;48.266;7.402;2023-04-07T01:58:10;99325.13;;;8.32;76.08
43147;BME280;28752;48.266;7.402;2023-04-07T02:00:35;99321.97;;;8.39;77.30
43147;BME280;28752;48.266;7.402;2023-04-07T02:03:08;99327.06;;;8.30;77.62
43147;BME280;28752;48.266;7.402;2023-04-07T02:05:37;99322.66;;;8.41;77.39
43147;BME280;28752;48.266;7.402;2023-04-07T02:08:07;99318.38;;;8.40;77.94
43147;BME280;28752;48.266;7.402;2023-04-07T02:10:36;99310.91;;;8.45;78.37
43147;BME280;28752;48.266;7.402;2023-04-07T02:13:04;99317.25;;;8.42;77.61
43147;BME280;28752;48.266;7.402;2023-04-07T02:15:30;99304.31;;;8.39;78.31
43147;BME280;28752;48.266;7.402;2023-04-07T02:17:57;99306.75;;;8.52;77.86
43147;BME280;28752;48.266;7.402;2023-04-07T02:20:23;99296.34;;;8.60;76.47
43147;BME280;28752;48.266;7.402;2023-04-07T02:22:49;99290.06;;;8.51;77.10
43147;BME280;28752;48.266;7.402;2023-04-07T02:25:27;99289.25;;;8.51;78.15
43147;BME280;28752;48.266;7.402;2023-04-07T02:27:54;99278.81;;;8.49;78.61
43147;BME280;28752;48.266;7.402;2023-04-07T02:30:20;99284.19;;;8.38;78.46
43147;BME280;28752;48.266;7.402;2023-04-07T02:32:45;99290.03;;;8.42;79.53
43147;BME280;28752;48.266;7.402;2023-04-07T02:35:10;99283.22;;;8.39;79.58
43147;BME280;28752;48.266;7.402;2023-04-07T02:37:36;99280.56;;;8.29;79.71
43147;BME280;28752;48.266;7.402;2023-04-07T02:40:03;99286.81;;;8.28;78.89
43147;BME280;28752;48.266;7.402;2023-04-07T02:42:28;99291.25;;;8.38;77.84
43147;BME280;28752;48.266;7.402;2023-04-07T02:44:54;99284.50;;;8.45;76.93
43147;BME280;28752;48.266;7.402;2023-04-07T02:47:20;99273.50;;;8.40;76.85
43147;BME280;28752;48.266;7.402;2023-04-07T02:49:45;99275.16;;;8.41;76.88
43147;BME280;28752;48.266;7.402;2023-04-07T02:52:11;99291.72;;;8.43;77.00
43147;BME280;28752;48.266;7.402;2023-04-07T02:54:36;99274.19;;;8.42;78.41
43147;BME280;28752;48.266;7.402;2023-04-07T02:57:02;99287.97;;;8.45;79.03
43147;BME280;28752;48.266;7.402;2023-04-07T02:59:27;99280.91;;;8.46;78.99
43147;BME280;28752;48.266;7.402;2023-04-07T03:01:52;99285.06;;;8.48;78.71
43147;BME280;28752;48.266;7.402;2023-04-07T03:04:18;99279.25;;;8.45;78.63
43147;BME280;28752;48.266;7.402;2023-04-07T03:06:43;99281.88;;;8.45;77.58
43147;BME280;28752;48.266;7.402;2023-04-07T03:09:08;99283.75;;;8.33;78.39
43147;BME280;28752;48.266;7.402;2023-04-07T03:11:34;99282.22;;;8.30;79.02
43147;BME280;28752;48.266;7.402;2023-04-07T03:14:00;99275.69;;;8.34;78.81
43147;BME280;28752;48.266;7.402;2023-04-07T03:16:25;99281.28;;;8.41;78.19
43147;BME280;28752;48.266;7.402;2023-04-07T03:18:51;99268.41;;;8.48;79.18
43147;BME280;28752;48.266;7.402;2023-04-07T03:21:16;99279.66;;;8.50;79.29
43147;BME280;28752;48.266;7.402;2023-04-07T03:23:41;99268.28;;;8.49;79.78
43147;BME280;28752;48.266;7.402;2023-04-07T03:26:07;99268.97;;;8.51;79.01
43147;BME280;28752;48.266;7.402;2023-04-07T03:28:32;99264.81;;;8.49;79.14
43147;BME280;28752;48.266;7.402;2023-04-07T03:30:58;99266.59;;;8.48;79.67
43147;BME280;28752;48.266;7.402;2023-04-07T03:33:23;99268.28;;;8.49;79.85
43147;BME280;28752;48.266;7.402;2023-04-07T03:35:48;99263.66;;;8.42;79.91
43147;BME280;28752;48.266;7.402;2023-04-07T03:38:14;99272.38;;;8.32;79.88
43147;BME280;28752;48.266;7.402;2023-04-07T03:40:39;99266.69;;;8.37;79.82
43147;BME280;28752;48.266;7.402;2023-04-07T03:43:05;99272.38;;;8.32;80.10
43147;BME280;28752;48.266;7.402;2023-04-07T03:45:36;99267.50;;;8.38;80.54
43147;BME280;28752;48.266;7.402;2023-04-07T03:48:02;99266.25;;;8.32;81.21
43147;BME280;28752;48.266;7.402;2023-04-07T03:50:27;99264.47;;;8.32;81.50
43147;BME280;28752;48.266;7.402;2023-04-07T03:52:52;99268.75;;;8.33;82.04
43147;BME280;28752;48.266;7.402;2023-04-07T03:55:18;99261.41;;;8.37;81.99
43147;BME280;28752;48.266;7.402;2023-04-07T03:57:43;99259.88;;;8.34;82.47
43147;BME280;28752;48.266;7.402;2023-04-07T04:00:09;99260.06;;;8.43;84.24
43147;BME280;28752;48.266;7.402;2023-04-07T04:02:34;99267.66;;;8.36;85.20
43147;BME280;28752;48.266;7.402;2023-04-07T04:05:00;99261.69;;;8.34;84.93
43147;BME280;28752;48.266;7.402;2023-04-07T04:07:25;99254.75;;;8.33;85.11
43147;BME280;28752;48.266;7.402;2023-04-07T04:09:51;99241.22;;;8.16;85.71
43147;BME280;28752;48.266;7.402;2023-04-07T04:12:16;99255.56;;;8.24;86.15
43147;BME280;28752;48.266;7.402;2023-04-07T04:14:42;99224.59;;;8.16;87.30
43147;BME280;28752;48.266;7.402;2023-04-07T04:17:07;99249.88;;;8.28;86.98
43147;BME280;28752;48.266;7.402;2023-04-07T04:19:32;99245.28;;;8.30;87.51
43147;BME280;28752;48.266;7.402;2023-04-07T04:21:58;99246.81;;;8.33;88.20
43147;BME280;28752;48.266;7.402;2023-04-07T04:24:23;99248.06;;;8.29;87.81
43147;BME280;28752;48.266;7.402;2023-04-07T04:26:48;99233.50;;;8.34;87.90
43147;BME280;28752;48.266;7.402;2023-04-07T04:29:14;99234.59;;;8.32;87.89
43147;BME280;28752;48.266;7.402;2023-04-07T04:31:39;99238.91;;;8.33;88.59
43147;BME280;28752;48.266;7.402;2023-04-07T04:34:05;99242.22;;;8.35;88.66
43147;BME280;28752;48.266;7.402;2023-04-07T04:36:30;99247.66;;;8.33;89.15
43147;BME280;28752;48.266;7.402;2023-04-07T04:38:56;99251.00;;;8.35;89.56
43147;BME280;28752;48.266;7.402;2023-04-07T04:41:21;99241.81;;;8.30;89.97
43147;BME280;28752;48.266;7.402;2023-04-07T04:43:47;99238.91;;;8.33;88.49
43147;BME280;28752;48.266;7.402;2023-04-07T04:46:12;99254.06;;;8.41;88.07
43147;BME280;28752;48.266;7.402;2023-04-07T04:48:37;99251.69;;;8.28;87.80
43147;BME280;28752;48.266;7.402;2023-04-07T04:51:03;99256.28;;;8.35;87.36
43147;BME280;28752;48.266;7.402;2023-04-07T04:53:28;99252.50;;;8.28;88.84
43147;BME280;28752;48.266;7.402;2023-04-07T04:55:54;99265.34;;;8.02;90.57
43147;BME280;28752;48.266;7.402;2023-04-07T04:58:20;99254.53;;;8.05;90.97
43147;BME280;28752;48.266;7.402;2023-04-07T05:00:45;99257.38;;;7.92;91.62
43147;BME280;28752;48.266;7.402;2023-04-07T05:03:11;99267.00;;;8.03;91.01
43147;BME280;28752;48.266;7.402;2023-04-07T05:05:36;99263.94;;;7.98;91.56
43147;BME280;28752;48.266;7.402;2023-04-07T05:08:02;99263.13;;;7.97;91.97
43147;BME280;28752;48.266;7.402;2023-04-07T05:10:27;99264.91;;;7.97;91.95
43147;BME280;28752;48.266;7.402;2023-04-07T05:12:52;99261.44;;;7.96;93.18
43147;BME280;28752;48.266;7.402;2023-04-07T05:15:18;99260.75;;;7.94;93.19
43147;BME280;28752;48.266;7.402;2023-04-07T05:17:43;99261.44;;;7.96;94.78
43147;BME280;28752;48.266;7.402;2023-04-07T05:20:14;99247.50;;;8.15;87.01
43147;BME280;28752;48.266;7.402;2023-04-07T05:22:40;99260.88;;;8.43;83.77
43147;BME280;28752;48.266;7.402;2023-04-07T05:25:05;99258.72;;;8.58;82.85
43147;BME280;28752;48.266;7.402;2023-04-07T05:27:31;99258.28;;;8.63;84.28
43147;BME280;28752;48.266;7.402;2023-04-07T05:29:56;99258.84;;;8.66;83.16
43147;BME280;28752;48.266;7.402;2023-04-07T05:32:22;99252.88;;;8.74;83.27
43147;BME280;28752;48.266;7.402;2023-04-07T05:34:48;99253.44;;;8.78;82.50
43147;BME280;28752;48.266;7.402;2023-04-07T05:37:13;99251.38;;;8.71;82.70
43147;BME280;28752;48.266;7.402;2023-04-07T05:39:38;99251.34;;;8.62;82.44
43147;BME280;28752;48.266;7.402;2023-04-07T05:42:04;99250.38;;;8.63;82.06
43147;BME280;28752;48.266;7.402;2023-04-07T05:44:30;99254.38;;;8.57;82.62
43147;BME280;28752;48.266;7.402;2023-04-07T05:46:55;99249.97;;;8.67;81.63
43147;BME280;28752;48.266;7.402;2023-04-07T05:49:21;99253.31;;;8.79;79.60
43147;BME280;28752;48.266;7.402;2023-04-07T05:51:46;99237.75;;;8.76;80.84
43147;BME280;28752;48.266;7.402;2023-04-07T05:54:11;99240.81;;;8.71;80.92
43147;BME280;28752;48.266;7.402;2023-04-07T05:56:37;99242.75;;;8.79;79.84
43147;BME280;28752;48.266;7.402;2023-04-07T05:59:02;99224.94;;;8.81;80.71
43147;BME280;28752;48.266;7.402;2023-04-07T06:01:28;99223.16;;;8.72;79.01
43147;BME280;28752;48.266;7.402;2023-04-07T06:03:54;99243.84;;;8.77;80.92
43147;BME280;28752;48.266;7.402;2023-04-07T06:06:20;99247.31;;;8.77;81.94
43147;BME280;28752;48.266;7.402;2023-04-07T06:08:45;99225.25;;;8.68;81.14
43147;BME280;28752;48.266;7.402;2023-04-07T06:11:11;99236.59;;;8.98;83.94
43147;BME280;28752;48.266;7.402;2023-04-07T06:13:36;99234.38;;;9.13;81.67
43147;BME280;28752;48.266;7.402;2023-04-07T06:16:02;99235.59;;;9.38;80.03
43147;BME280;28752;48.266;7.402;2023-04-07T06:18:27;99234.53;;;9.69;79.45
43147;BME280;28752;48.266;7.402;2023-04-07T06:20:52;99222.75;;;9.43;81.49
43147;BME280;28752;48.266;7.402;2023-04-07T06:23:18;99235.50;;;9.95;79.77
43147;BME280;28752;48.266;7.402;2023-04-07T06:25:43;99220.97;;;9.82;78.71
43147;BME280;28752;48.266;7.402;2023-04-07T06:28:09;99240.38;;;10.28;76.78
43147;BME280;28752;48.266;7.402;2023-04-07T06:30:35;99209.56;;;10.27;77.65
43147;BME280;28752;48.266;7.402;2023-04-07T06:33:00;99245.34;;;10.59;73.38
43147;BME280;28752;48.266;7.402;2023-04-07T06:35:26;99241.00;;;10.40;74.18
43147;BME280;28752;48.266;7.402;2023-04-07T06:37:51;99241.38;;;10.17;76.30
43147;BME280;28752;48.266;7.402;2023-04-07T06:40:17;99242.38;;;10.16;75.38
43147;BME280;28752;48.266;7.402;2023-04-07T06:42:42;99241.34;;;9.99;76.51
43147;BME280;28752;48.266;7.402;2023-04-07T06:45:08;99248.13;;;10.02;76.94
43147;BME280;28752;48.266;7.402;2023-04-07T06:47:34;99248.19;;;9.64;76.75
43147;BME280;28752;48.266;7.402;2023-04-07T06:49:59;99253.59;;;9.63;78.19
43147;BME280;28752;48.266;7.402;2023-04-07T06:52:24;99245.34;;;9.75;77.15
43147;BME280;28752;48.266;7.402;2023-04-07T06:54:50;99253.41;;;9.74;76.12
43147;BME280;28752;48.266;7.402;2023-04-07T06:57:15;99261.59;;;9.81;77.08
43147;BME280;28752;48.266;7.402;2023-04-07T06:59:41;99264.09;;;9.82;78.17
43147;BME280;28752;48.266;7.402;2023-04-07T07:02:06;99260.09;;;9.68;79.31
43147;BME280;28752;48.266;7.402;2023-04-07T07:04:33;99266.06;;;9.80;79.63
43147;BME280;28752;48.266;7.402;2023-04-07T07:06:58;99276.53;;;9.72;78.55
43147;BME280;28752;48.266;7.402;2023-04-07T07:09:24;99269.13;;;9.75;79.13
43147;BME280;28752;48.266;7.402;2023-04-07T07:11:50;99264.03;;;9.64;81.65
43147;BME280;28752;48.266;7.402;2023-04-07T07:14:15;99276.78;;;9.78;80.70
43147;BME280;28752;48.266;7.402;2023-04-07T07:16:41;99277.06;;;9.75;81.02
43147;BME280;28752;48.266;7.402;2023-04-07T07:19:06;99281.09;;;9.80;80.96
43147;BME280;28752;48.266;7.402;2023-04-07T07:21:31;99287.69;;;9.66;82.65
43147;BME280;28752;48.266;7.402;2023-04-07T07:23:57;99294.50;;;9.58;83.02
43147;BME280;28752;48.266;7.402;2023-04-07T07:26:22;99281.81;;;9.72;83.13
43147;BME280;28752;48.266;7.402;2023-04-07T07:28:48;99280.72;;;9.65;84.38
43147;BME280;28752;48.266;7.402;2023-04-07T07:31:13;99293.16;;;9.92;84.02
43147;BME280;28752;48.266;7.402;2023-04-07T07:33:40;99288.53;;;9.94;84.53
43147;BME280;28752;48.266;7.402;2023-04-07T07:36:08;99286.03;;;10.02;85.93
43147;BME280;28752;48.266;7.402;2023-04-07T07:38:34;99300.91;;;10.03;85.36
43147;BME280;28752;48.266;7.402;2023-04-07T07:40:59;99302.81;;;10.11;85.61
43147;BME280;28752;48.266;7.402;2023-04-07T07:43:25;99303.25;;;10.06;85.74
43147;BME280;28752;48.266;7.402;2023-04-07T07:45:50;99299.25;;;10.02;87.89
43147;BME280;28752;48.266;7.402;2023-04-07T07:48:15;99300.03;;;10.12;86.53
43147;BME280;28752;48.266;7.402;2023-04-07T07:50:41;99302.34;;;10.25;85.21
43147;BME280;28752;48.266;7.402;2023-04-07T07:53:08;99307.88;;;10.32;86.11
43147;BME280;28752;48.266;7.402;2023-04-07T07:55:34;99315.50;;;10.45;86.24
43147;BME280;28752;48.266;7.402;2023-04-07T07:57:59;99316.34;;;10.45;85.58
43147;BME280;28752;48.266;7.402;2023-04-07T08:00:25;99312.16;;;10.43;86.47
43147;BME280;28752;48.266;7.402;2023-04-07T08:02:51;99322.94;;;10.59;83.42
43147;BME280;28752;48.266;7.402;2023-04-07T08:05:16;99314.06;;;10.51;83.28
43147;BME280;28752;48.266;7.402;2023-04-07T08:07:41;99323.47;;;10.35;82.13
43147;BME280;28752;48.266;7.402;2023-04-07T08:10:07;99328.53;;;10.19;86.39
43147;BME280;28752;48.266;7.402;2023-04-07T08:12:33;99328.34;;;10.02;86.63
43147;BME280;28752;48.266;7.402;2023-04-07T08:14:59;99334.81;;;10.18;86.87
43147;BME280;28752;48.266;7.402;2023-04-07T08:17:24;99339.69;;;10.22;85.40
43147;BME280;28752;48.266;7.402;2023-04-07T08:19:50;99335.44;;;10.02;87.17
43147;BME280;28752;48.266;7.402;2023-04-07T08:22:15;99343.25;;;9.93;87.69
43147;BME280;28752;48.266;7.402;2023-04-07T08:24:41;99338.94;;;10.02;88.48
43147;BME280;28752;48.266;7.402;2023-04-07T08:27:06;99338.72;;;10.13;86.42
43147;BME280;28752;48.266;7.402;2023-04-07T08:29:31;99344.38;;;10.01;86.75
43147;BME280;28752;48.266;7.402;2023-04-07T08:31:57;99346.00;;;10.11;86.12
43147;BME280;28752;48.266;7.402;2023-04-07T08:34:22;99344.84;;;10.14;85.26
43147;BME280;28752;48.266;7.402;2023-04-07T08:36:47;99345.13;;;10.21;83.45
43147;BME280;28752;48.266;7.402;2023-04-07T08:39:13;99336.31;;;10.20;85.04
43147;BME280;28752;48.266;7.402;2023-04-07T08:41:39;99346.88;;;10.40;85.21
43147;BME280;28752;48.266;7.402;2023-04-07T08:44:09;99351.56;;;10.46;84.05
43147;BME280;28752;48.266;7.402;2023-04-07T08:46:38;99352.03;;;10.31;79.83
43147;BME280;28752;48.266;7.402;2023-04-07T08:49:07;99357.31;;;10.41;81.54
43147;BME280;28752;48.266;7.402;2023-04-07T08:51:36;99359.81;;;10.43;83.38
43147;BME280;28752;48.266;7.402;2023-04-07T08:54:03;99359.38;;;10.47;83.01
43147;BME280;28752;48.266;7.402;2023-04-07T08:56:32;99360.94;;;10.40;81.91
43147;BME280;28752;48.266;7.402;2023-04-07T08:59:00;99362.09;;;10.18;79.83
43147;BME280;28752;48.266;7.402;2023-04-07T09:01:26;99365.34;;;10.12;81.97
43147;BME280;28752;48.266;7.402;2023-04-07T09:03:52;99369.66;;;10.03;81.82
43147;BME280;28752;48.266;7.402;2023-04-07T09:06:17;99373.03;;;9.95;83.21
43147;BME280;28752;48.266;7.402;2023-04-07T09:08:42;99371.25;;;9.96;84.20
43147;BME280;28752;48.266;7.402;2023-04-07T09:11:07;99373.84;;;10.06;84.17
43147;BME280;28752;48.266;7.402;2023-04-07T09:13:33;99351.78;;;9.87;84.66
43147;BME280;28752;48.266;7.402;2023-04-07T09:16:00;99383.56;;;10.15;86.17
43147;BME280;28752;48.266;7.402;2023-04-07T09:18:27;99377.59;;;10.03;86.71
43147;BME280;28752;48.266;7.402;2023-04-07T09:21:01;99387.13;;;9.96;87.95
43147;BME280;28752;48.266;7.402;2023-04-07T09:23:33;99390.41;;;10.08;89.49
43147;BME280;28752;48.266;7.402;2023-04-07T09:26:01;99388.25;;;10.31;89.24
43147;BME280;28752;48.266;7.402;2023-04-07T09:28:46;99390.19;;;10.29;89.07
43147;BME280;28752;48.266;7.402;2023-04-07T09:31:12;99395.19;;;10.32;88.44
43147;BME280;28752;48.266;7.402;2023-04-07T09:33:38;99381.84;;;10.43;87.78
43147;BME280;28752;48.266;7.402;2023-04-07T09:36:04;99385.34;;;10.34;88.16
43147;BME280;28752;48.266;7.402;2023-04-07T09:38:39;99390.84;;;10.51;89.35
43147;BME280;28752;48.266;7.402;2023-04-07T09:41:09;99393.06;;;10.55;86.85
43147;BME280;28752;48.266;7.402;2023-04-07T09:43:41;99394.19;;;10.53;87.36
43147;BME280;28752;48.266;7.402;2023-04-07T09:46:13;99394.19;;;10.53;86.92
43147;BME280;28752;48.266;7.402;2023-04-07T09:48:40;99385.75;;;10.39;87.95
43147;BME280;28752;48.266;7.402;2023-04-07T09:51:14;99403.75;;;10.63;86.32
43147;BME280;28752;48.266;7.402;2023-04-07T09:53:48;99386.41;;;10.51;88.68
43147;BME280;28752;48.266;7.402;2023-04-07T09:56:15;99393.34;;;10.80;89.16
43147;BME280;28752;48.266;7.402;2023-04-07T09:58:42;99402.75;;;10.92;85.72
43147;BME280;28752;48.266;7.402;2023-04-07T10:01:09;99395.38;;;11.14;84.86
43147;BME280;28752;48.266;7.402;2023-04-07T10:03:35;99398.47;;;11.27;83.55
43147;BME280;28752;48.266;7.402;2023-04-07T10:06:01;99401.34;;;11.34;82.79
43147;BME280;28752;48.266;7.402;2023-04-07T10:08:28;99404.91;;;11.43;81.59
43147;BME280;28752;48.266;7.402;2023-04-07T10:10:55;99403.94;;;11.62;81.02
43147;BME280;28752;48.266;7.402;2023-04-07T10:13:23;99416.31;;;11.79;80.53
43147;BME280;28752;48.266;7.402;2023-04-07T10:15:50;99406.44;;;11.89;80.25
43147;BME280;28752;48.266;7.402;2023-04-07T10:18:16;99413.19;;;12.28;80.33
43147;BME280;28752;48.266;7.402;2023-04-07T10:20:44;99402.03;;;12.51;81.44
43147;BME280;28752;48.266;7.402;2023-04-07T10:23:46;99409.66;;;12.54;82.80
43147;BME280;28752;48.266;7.402;2023-04-07T10:26:15;99411.09;;;12.74;80.77
43147;BME280;28752;48.266;7.402;2023-04-07T10:28:45;99396.19;;;12.90;80.28
43147;BME280;28752;48.266;7.402;2023-04-07T10:31:13;99414.88;;;13.14;79.17
43147;BME280;28752;48.266;7.402;2023-04-07T10:33:49;99411.59;;;13.29;80.79
43147;BME280;28752;48.266;7.402;2023-04-07T10:36:18;99410.06;;;13.18;80.48
43147;BME280;28752;48.266;7.402;2023-04-07T10:41:36;99417.84;;;13.11;80.02
43147;BME280;28752;48.266;7.402;2023-04-07T10:44:05;99410.19;;;13.08;81.22
43147;BME280;28752;48.266;7.402;2023-04-07T10:49:16;99419.94;;;12.91;80.98
43147;BME280;28752;48.266;7.402;2023-04-07T10:51:42;99419.19;;;13.07;80.42
43147;BME280;28752;48.266;7.402;2023-04-07T10:57:15;99427.81;;;13.18;78.56
43147;BME280;28752;48.266;7.402;2023-04-07T11:02:34;99426.66;;;13.12;74.09
43147;BME280;28752;48.266;7.402;2023-04-07T11:04:59;99433.13;;;13.09;75.99
43147;BME280;28752;48.266;7.402;2023-04-07T11:07:46;99435.06;;;13.42;79.50
43147;BME280;28752;48.266;7.402;2023-04-07T11:10:14;99430.91;;;13.47;77.75
43147;BME280;28752;48.266;7.402;2023-04-07T11:12:41;99437.06;;;13.48;77.40
43147;BME280;28752;48.266;7.402;2023-04-07T11:15:19;99420.63;;;13.77;76.87
43147;BME280;28752;48.266;7.402;2023-04-07T11:17:46;99430.94;;;13.80;77.18
43147;BME280;28752;48.266;7.402;2023-04-07T11:20:12;99432.25;;;14.09;76.37
43147;BME280;28752;48.266;7.402;2023-04-07T11:22:37;99439.88;;;14.04;75.99
43147;BME280;28752;48.266;7.402;2023-04-07T11:25:19;99436.09;;;13.82;75.15
43147;BME280;28752;48.266;7.402;2023-04-07T11:27:44;99437.75;;;14.08;71.79
43147;BME280;28752;48.266;7.402;2023-04-07T11:30:10;99442.91;;;14.09;72.55
43147;BME280;28752;48.266;7.402;2023-04-07T11:32:35;99433.59;;;13.89;75.46
43147;BME280;28752;48.266;7.402;2023-04-07T11:35:05;99431.94;;;13.96;75.53
43147;BME280;28752;48.266;7.402;2023-04-07T11:37:30;99442.06;;;13.92;75.04
43147;BME280;28752;48.266;7.402;2023-04-07T11:39:57;99443.56;;;13.78;74.92
43147;BME280;28752;48.266;7.402;2023-04-07T11:42:34;99437.09;;;13.97;74.99
43147;BME280;28752;48.266;7.402;2023-04-07T11:44:59;99445.38;;;14.02;75.35
43147;BME280;28752;48.266;7.402;2023-04-07T11:47:35;99447.38;;;14.00;75.18
43147;BME280;28752;48.266;7.402;2023-04-07T11:50:01;99441.69;;;14.28;73.30
43147;BME280;28752;48.266;7.402;2023-04-07T11:52:26;99450.53;;;14.20;72.36
43147;BME280;28752;48.266;7.402;2023-04-07T11:54:52;99449.22;;;14.08;73.59
43147;BME280;28752;48.266;7.402;2023-04-07T11:57:27;99445.81;;;14.47;74.62
43147;BME280;28752;48.266;7.402;2023-04-07T12:00:10;99440.66;;;14.37;72.83
43147;BME280;28752;48.266;7.402;2023-04-07T12:02:36;99451.63;;;14.51;73.46
43147;BME280;28752;48.266;7.402;2023-04-07T12:05:02;99446.09;;;14.69;72.03
43147;BME280;28752;48.266;7.402;2023-04-07T12:07:27;99440.75;;;14.77;72.06
43147;BME280;28752;48.266;7.402;2023-04-07T12:09:53;99440.22;;;14.82;70.37
43147;BME280;28752;48.266;7.402;2023-04-07T12:12:26;99437.66;;;14.97;70.97
43147;BME280;28752;48.266;7.402;2023-04-07T12:14:53;99431.13;;;14.68;71.74
43147;BME280;28752;48.266;7.402;2023-04-07T12:17:22;99434.59;;;14.77;71.27
43147;BME280;28752;48.266;7.402;2023-04-07T12:19:48;99438.06;;;14.85;71.58
43147;BME280;28752;48.266;7.402;2023-04-07T12:22:14;99416.31;;;14.65;72.27
43147;BME280;28752;48.266;7.402;2023-04-07T12:24:39;99439.03;;;14.84;71.55
43147;BME280;28752;48.266;7.402;2023-04-07T12:27:05;99437.19;;;14.93;72.04
43147;BME280;28752;48.266;7.402;2023-04-07T12:29:30;99438.25;;;14.75;72.37
43147;BME280;28752;48.266;7.402;2023-04-07T12:31:56;99444.94;;;14.63;71.92
43147;BME280;28752;48.266;7.402;2023-04-07T12:34:21;99440.63;;;14.54;73.50
43147;BME280;28752;48.266;7.402;2023-04-07T12:36:47;99434.59;;;14.60;73.03
43147;BME280;28752;48.266;7.402;2023-04-07T12:39:13;99438.81;;;14.63;72.49
43147;BME280;28752;48.266;7.402;2023-04-07T12:41:39;99440.59;;;14.70;71.87
43147;BME280;28752;48.266;7.402;2023-04-07T12:44:04;99433.78;;;14.68;70.70
43147;BME280;28752;48.266;7.402;2023-04-07T12:46:30;99433.13;;;14.66;71.36
43147;BME280;28752;48.266;7.402;2023-04-07T12:48:55;99436.38;;;14.92;70.35
43147;BME280;28752;48.266;7.402;2023-04-07T12:51:21;99433.38;;;15.19;69.39
43147;BME280;28752;48.266;7.402;2023-04-07T12:53:46;99423.69;;;15.26;69.65
43147;BME280;28752;48.266;7.402;2023-04-07T12:56:12;99433.41;;;15.42;69.54
43147;BME280;28752;48.266;7.402;2023-04-07T12:58:38;99428.31;;;15.32;68.31
43147;BME280;28752;48.266;7.402;2023-04-07T13:01:04;99425.16;;;15.28;70.32
43147;BME280;28752;48.266;7.402;2023-04-07T13:03:29;99420.88;;;15.42;67.66
43147;BME280;28752;48.266;7.402;2023-04-07T13:05:55;99425.09;;;15.60;66.76
43147;BME280;28752;48.266;7.402;2023-04-07T13:08:20;99426.25;;;15.66;70.03
43147;BME280;28752;48.266;7.402;2023-04-07T13:10:46;99423.25;;;15.60;66.28
43147;BME280;28752;48.266;7.402;2023-04-07T13:13:11;99419.28;;;15.33;69.06
43147;BME280;28752;48.266;7.402;2023-04-07T13:15:36;99421.41;;;15.15;67.90
43147;BME280;28752;48.266;7.402;2023-04-07T13:18:02;99424.66;;;15.02;68.64
43147;BME280;28752;48.266;7.402;2023-04-07T13:20:28;99417.00;;;14.99;68.54
43147;BME280;28752;48.266;7.402;2023-04-07T13:22:54;99425.53;;;14.94;67.59
43147;BME280;28752;48.266;7.402;2023-04-07T13:25:20;99422.84;;;14.94;67.48